createdAt,value
2018-03-07T00:01:33.229Z,6.86
2018-03-07T00:04:04.206Z,6.87
2018-03-07T00:06:35.240Z,6.87
2018-03-07T00:09:06.215Z,6.85
2018-03-07T00:11:37.200Z,6.85
2018-03-07T00:14:08.198Z,6.87
2018-03-07T00:16:39.209Z,6.88
2018-03-07T00:19:10.201Z,6.85
2018-03-07T00:21:41.189Z,6.86
2018-03-07T00:24:12.181Z,6.85
2018-03-07T00:26:43.151Z,6.82
2018-03-07T00:29:14.165Z,6.80
2018-03-07T00:31:45.148Z,6.79
2018-03-07T00:34:16.121Z,6.76
2018-03-07T00:36:47.088Z,6.73
2018-03-07T00:39:18.092Z,6.72
2018-03-07T00:41:49.126Z,6.74
2018-03-07T00:44:20.073Z,6.71
2018-03-07T00:46:51.097Z,6.69
2018-03-07T00:49:22.088Z,6.70
2018-03-07T00:51:53.086Z,6.68
2018-03-07T00:54:24.097Z,6.66
2018-03-07T00:56:55.075Z,6.61
2018-03-07T00:59:26.052Z,6.61
2018-03-07T01:01:57.027Z,6.59
2018-03-07T01:04:28.033Z,6.60
2018-03-07T01:06:59.066Z,6.62
2018-03-07T01:09:29.986Z,6.65
2018-03-07T01:12:01.020Z,6.69
2018-03-07T01:14:31.999Z,6.70
2018-03-07T01:17:02.956Z,6.68
2018-03-07T01:19:33.910Z,6.73
2018-03-07T01:22:04.871Z,6.80
2018-03-07T01:24:35.875Z,6.85
2018-03-07T01:27:06.868Z,6.90
2018-03-07T01:29:37.910Z,6.93
2018-03-07T01:32:08.902Z,6.93
2018-03-07T01:34:39.905Z,6.85
2018-03-07T01:37:10.880Z,6.72
2018-03-07T01:39:41.849Z,6.58
2018-03-07T01:42:12.828Z,6.44
2018-03-07T01:44:50.876Z,6.32
2018-03-07T01:47:21.852Z,6.30
2018-03-07T01:49:52.893Z,6.35
2018-03-07T01:52:23.888Z,6.43
2018-03-07T01:54:54.859Z,6.45
2018-03-07T01:57:25.872Z,6.42
2018-03-07T01:59:56.878Z,6.36
2018-03-07T02:02:27.863Z,6.32
2018-03-07T02:04:58.881Z,6.29
2018-03-07T02:07:29.913Z,6.34
2018-03-07T02:10:00.885Z,6.35
2018-03-07T02:12:31.869Z,6.34
2018-03-07T02:15:02.909Z,6.36
2018-03-07T02:17:33.862Z,6.42
2018-03-07T02:20:04.851Z,6.51
2018-03-07T02:22:35.807Z,6.60
2018-03-07T02:25:09.760Z,6.65
2018-03-07T02:27:40.711Z,6.62
2018-03-07T02:30:11.702Z,6.63
2018-03-07T02:32:42.709Z,6.69
2018-03-07T02:35:13.672Z,6.76
2018-03-07T02:37:44.676Z,6.79
2018-03-07T02:40:15.652Z,6.83
2018-03-07T02:42:46.648Z,6.85
2018-03-07T02:45:17.654Z,6.88
2018-03-07T02:47:48.644Z,6.93
2018-03-07T02:50:19.663Z,6.94
2018-03-07T02:52:50.659Z,6.96
2018-03-07T02:55:21.649Z,6.98
2018-03-07T02:57:52.647Z,6.97
2018-03-07T03:00:23.674Z,6.98
2018-03-07T03:02:54.645Z,6.95
2018-03-07T03:05:25.645Z,6.90
2018-03-07T03:07:56.640Z,6.84
2018-03-07T03:10:27.646Z,6.78
2018-03-07T03:12:58.695Z,6.79
2018-03-07T03:15:29.655Z,6.83
2018-03-07T03:18:00.673Z,6.84
2018-03-07T03:20:31.662Z,6.86
2018-03-07T03:23:02.688Z,6.91
2018-03-07T03:25:33.669Z,6.99
2018-03-07T03:28:04.708Z,7.07
2018-03-07T03:30:35.732Z,7.12
2018-03-07T03:33:06.679Z,7.14
2018-03-07T03:35:37.681Z,7.16
2018-03-07T03:38:08.672Z,7.18
2018-03-07T03:40:39.701Z,7.21
2018-03-07T03:43:10.675Z,7.20
2018-03-07T03:45:41.738Z,7.19
2018-03-07T03:48:12.697Z,7.15
2018-03-07T03:50:43.729Z,7.08
2018-03-07T03:53:14.729Z,7.02
2018-03-07T03:55:45.767Z,7.00
2018-03-07T03:58:16.781Z,7.01
2018-03-07T04:00:47.735Z,7.05
2018-03-07T04:03:18.764Z,7.06
2018-03-07T04:05:49.763Z,7.05
2018-03-07T04:08:20.741Z,6.98
2018-03-07T04:10:51.724Z,6.85
2018-03-07T04:13:22.711Z,6.69
2018-03-07T04:15:53.709Z,6.56
2018-03-07T04:18:24.693Z,6.46
2018-03-07T04:20:55.698Z,6.42
2018-03-07T04:23:26.704Z,6.45
2018-03-07T04:25:57.713Z,6.48
2018-03-07T04:28:28.698Z,6.49
2018-03-07T04:30:59.750Z,6.38
2018-03-07T04:33:30.750Z,6.29
2018-03-07T04:36:01.724Z,6.25
2018-03-07T04:38:32.710Z,6.14
2018-03-07T04:41:03.745Z,6.07
2018-03-07T04:43:34.716Z,5.99
2018-03-07T04:46:05.771Z,5.94
2018-03-07T04:48:36.759Z,5.86
2018-03-07T04:51:07.809Z,5.85
2018-03-07T04:53:38.895Z,5.86
2018-03-07T04:56:09.856Z,5.84
2018-03-07T04:58:40.832Z,5.83
2018-03-07T05:01:11.902Z,5.83
2018-03-07T05:03:42.859Z,5.94
2018-03-07T05:06:14.095Z,6.06
2018-03-07T05:08:45.065Z,6.13
2018-03-07T05:11:16.090Z,6.16
2018-03-07T05:13:47.082Z,6.17
2018-03-07T05:16:18.078Z,6.18
2018-03-07T05:18:49.060Z,6.17
2018-03-07T05:21:20.053Z,6.12
2018-03-07T05:23:51.031Z,6.17
2018-03-07T05:26:22.005Z,6.22
2018-03-07T05:28:53.023Z,6.28
2018-03-07T05:31:23.994Z,6.25
2018-03-07T05:33:55.066Z,6.32
2018-03-07T05:36:26.044Z,6.40
2018-03-07T05:38:57.044Z,6.39
2018-03-07T05:41:28.026Z,6.41
2018-03-07T05:43:59.017Z,6.43
2018-03-07T05:46:30.069Z,6.51
2018-03-07T05:49:01.060Z,6.68
2018-03-07T05:51:32.081Z,6.73
2018-03-07T05:54:03.105Z,6.66
2018-03-07T05:56:34.084Z,6.47
2018-03-07T05:59:05.058Z,6.47
2018-03-07T06:01:36.066Z,6.55
2018-03-07T06:04:07.014Z,6.66
2018-03-07T06:06:38.043Z,6.72
2018-03-07T06:09:09.025Z,6.87
2018-03-07T06:11:40.028Z,7.00
2018-03-07T06:14:10.995Z,7.07
2018-03-07T06:16:41.986Z,7.10
2018-03-07T06:19:12.994Z,7.12
2018-03-07T06:21:43.999Z,7.12
2018-03-07T06:24:15.028Z,7.25
2018-03-07T06:26:45.995Z,7.28
2018-03-07T06:29:17.015Z,7.26
2018-03-07T06:31:48.042Z,7.29
2018-03-07T06:34:19.069Z,7.36
2018-03-07T06:36:50.044Z,7.40
2018-03-07T06:39:21.074Z,7.45
2018-03-07T06:41:52.024Z,7.52
2018-03-07T06:44:23.011Z,7.71
2018-03-07T06:46:54.027Z,7.88
2018-03-07T06:49:25.044Z,7.92
2018-03-07T06:51:56.064Z,7.95
2018-03-07T06:54:27.044Z,8.03
2018-03-07T06:56:58.052Z,8.08
2018-03-07T06:59:29.025Z,8.11
2018-03-07T07:02:00.066Z,8.16
2018-03-07T07:04:31.070Z,8.37
2018-03-07T07:07:02.068Z,8.55
2018-03-07T07:09:33.109Z,8.68
2018-03-07T07:12:04.120Z,8.84
2018-03-07T07:14:35.135Z,9.04
2018-03-07T07:17:06.136Z,9.21
2018-03-07T07:19:37.132Z,9.13
2018-03-07T07:22:08.107Z,9.14
2018-03-07T07:24:39.092Z,9.57
2018-03-07T07:27:10.036Z,9.72
2018-03-07T07:29:41.032Z,9.96
2018-03-07T07:32:12.020Z,9.94
2018-03-07T07:34:43.043Z,10.01
2018-03-07T07:37:14.062Z,10.04
2018-03-07T07:39:45.011Z,10.02
2018-03-07T07:42:16.033Z,10.04
2018-03-07T07:44:46.997Z,10.02
2018-03-07T07:47:18.039Z,10.08
2018-03-07T07:49:49.011Z,10.37
2018-03-07T07:52:20.012Z,10.69
2018-03-07T07:54:51.003Z,10.70
2018-03-07T07:57:21.998Z,10.77
2018-03-07T07:59:52.975Z,11.03
2018-03-07T08:02:23.977Z,11.11
2018-03-07T08:04:55.018Z,11.19
2018-03-07T08:07:25.995Z,11.94
2018-03-07T08:09:57.032Z,12.17
2018-03-07T08:12:28.070Z,12.87
2018-03-07T08:14:59.039Z,13.14
2018-03-07T08:17:30.029Z,13.32
2018-03-07T08:20:01.073Z,13.49
2018-03-07T08:22:32.036Z,13.79
2018-03-07T08:25:03.073Z,13.78
2018-03-07T08:27:34.098Z,13.18
2018-03-07T08:30:05.065Z,13.59
2018-03-07T08:32:36.094Z,13.68
2018-03-07T08:35:07.087Z,14.65
2018-03-07T08:37:38.110Z,14.99
2018-03-07T08:40:09.085Z,15.58
2018-03-07T08:42:40.100Z,15.17
2018-03-07T08:45:11.146Z,16.29
2018-03-07T08:47:42.201Z,17.34
2018-03-07T08:50:13.220Z,20.62
2018-03-07T08:52:44.185Z,22.88
2018-03-07T08:55:15.169Z,25.12
2018-03-07T08:57:46.161Z,27.01
2018-03-07T09:00:17.116Z,29.28
2018-03-07T09:02:48.073Z,30.81
2018-03-07T09:05:19.061Z,30.61
2018-03-07T09:07:50.020Z,29.00
2018-03-07T09:10:21.065Z,26.74
2018-03-07T09:12:52.051Z,24.98
2018-03-07T09:15:23.056Z,23.87
2018-03-07T09:17:54.004Z,23.36
2018-03-07T09:20:24.977Z,23.14
2018-03-07T09:22:55.982Z,23.03
2018-03-07T09:25:26.973Z,23.08
2018-03-07T09:27:57.955Z,23.47
2018-03-07T09:30:28.896Z,22.57
2018-03-07T09:32:59.851Z,22.06
2018-03-07T09:35:30.901Z,22.83
2018-03-07T09:38:01.898Z,22.78
2018-03-07T09:40:32.845Z,22.56
2018-03-07T09:43:03.913Z,22.15
2018-03-07T09:45:34.890Z,20.52
2018-03-07T09:48:05.882Z,19.48
2018-03-07T09:50:36.941Z,18.90
2018-03-07T09:53:07.918Z,18.36
2018-03-07T09:55:38.926Z,18.03
2018-03-07T09:58:09.952Z,17.31
2018-03-07T10:00:40.942Z,17.21
2018-03-07T10:03:11.926Z,17.15
2018-03-07T10:05:42.921Z,17.28
2018-03-07T10:08:13.953Z,16.71
2018-03-07T10:10:44.949Z,16.25
2018-03-07T10:13:15.936Z,16.64
2018-03-07T10:15:46.949Z,17.08
2018-03-07T10:18:17.901Z,16.80
2018-03-07T10:20:48.919Z,16.48
2018-03-07T10:23:19.976Z,16.52
2018-03-07T10:25:50.963Z,16.49
2018-03-07T10:28:21.963Z,16.71
2018-03-07T10:30:52.947Z,17.28
2018-03-07T10:33:25.899Z,16.93
2018-03-07T10:35:56.864Z,16.54
2018-03-07T10:38:27.860Z,16.56
2018-03-07T10:40:58.870Z,16.74
2018-03-07T10:43:29.878Z,17.03
2018-03-07T10:46:00.904Z,16.71
2018-03-07T10:48:31.907Z,16.38
2018-03-07T10:51:02.879Z,16.27
2018-03-07T10:53:33.843Z,16.25
2018-03-07T10:56:04.845Z,16.05
2018-03-07T10:58:35.809Z,15.95
2018-03-07T11:01:06.815Z,16.05
2018-03-07T11:03:37.769Z,16.91
2018-03-07T11:06:08.772Z,19.23
2018-03-07T11:08:39.736Z,22.10
2018-03-07T11:11:10.737Z,22.44
2018-03-07T11:13:41.727Z,21.41
2018-03-07T11:16:12.715Z,19.85
2018-03-07T11:18:43.709Z,18.82
2018-03-07T11:21:14.727Z,17.62
2018-03-07T11:23:45.746Z,17.25
2018-03-07T11:26:16.778Z,17.09
2018-03-07T11:28:47.749Z,17.02
2018-03-07T11:31:18.810Z,17.01
2018-03-07T11:33:49.805Z,17.29
2018-03-07T11:36:20.822Z,17.80
2018-03-07T11:38:51.776Z,17.57
2018-03-07T11:41:22.799Z,17.12
2018-03-07T11:43:53.834Z,16.43
2018-03-07T11:46:24.808Z,16.20
2018-03-07T11:48:55.796Z,15.90
2018-03-07T11:51:26.808Z,16.58
2018-03-07T11:53:57.874Z,17.69
2018-03-07T11:56:28.868Z,18.28
2018-03-07T11:58:59.882Z,18.11
2018-03-07T12:01:30.902Z,17.98
2018-03-07T12:04:01.909Z,17.46
2018-03-07T12:06:32.964Z,17.52
2018-03-07T12:09:04.015Z,18.15
2018-03-07T12:11:35.030Z,18.31
2018-03-07T12:14:06.018Z,18.23
2018-03-07T12:16:37.027Z,17.39
2018-03-07T12:19:08.042Z,16.60
2018-03-07T12:21:39.093Z,16.35
2018-03-07T12:24:10.057Z,16.11
2018-03-07T12:26:41.071Z,16.23
2018-03-07T12:29:12.065Z,16.67
2018-03-07T12:31:43.054Z,17.50
2018-03-07T12:34:14.004Z,18.51
2018-03-07T12:36:45.049Z,19.07
2018-03-07T12:39:16.013Z,18.93
2018-03-07T12:41:47.053Z,18.62
2018-03-07T12:44:18.000Z,18.84
2018-03-07T12:46:48.990Z,18.97
2018-03-07T12:49:20.007Z,18.93
2018-03-07T12:51:50.994Z,18.31
2018-03-07T12:54:22.006Z,18.11
2018-03-07T12:56:53.001Z,17.96
2018-03-07T12:59:23.985Z,18.02
2018-03-07T13:01:55.043Z,17.90
2018-03-07T13:04:26.040Z,17.63
2018-03-07T13:06:57.199Z,17.56
2018-03-07T13:09:28.139Z,17.68
2018-03-07T13:11:59.105Z,17.69
2018-03-07T13:14:30.116Z,17.31
2018-03-07T13:17:01.108Z,17.04
2018-03-07T13:19:32.095Z,17.13
2018-03-07T13:22:03.140Z,17.01
2018-03-07T13:24:34.128Z,16.89
2018-03-07T13:27:05.101Z,17.51
2018-03-07T13:29:36.123Z,17.69
2018-03-07T13:32:07.118Z,17.23
2018-03-07T13:34:38.101Z,17.57
2018-03-07T13:37:09.128Z,17.22
2018-03-07T13:39:40.087Z,16.40
2018-03-07T13:42:11.081Z,16.13
2018-03-07T13:44:42.078Z,16.38
2018-03-07T13:47:13.093Z,16.45
2018-03-07T13:49:44.078Z,16.55
2018-03-07T13:52:15.143Z,16.59
2018-03-07T13:54:46.081Z,16.00
2018-03-07T13:57:17.094Z,15.79
2018-03-07T13:59:48.041Z,15.52
2018-03-07T14:02:19.080Z,15.35
2018-03-07T14:04:50.027Z,15.32
2018-03-07T14:07:21.049Z,14.95
2018-03-07T14:09:52.028Z,14.95
2018-03-07T14:12:23.036Z,15.03
2018-03-07T14:14:54.073Z,15.36
2018-03-07T14:17:25.056Z,15.34
2018-03-07T14:19:56.065Z,15.01
2018-03-07T14:22:27.060Z,14.90
2018-03-07T14:24:58.060Z,14.86
2018-03-07T14:27:29.095Z,14.67
2018-03-07T14:30:00.090Z,14.66
2018-03-07T14:32:31.085Z,14.46
2018-03-07T14:35:02.127Z,14.51
2018-03-07T14:37:33.132Z,14.47
2018-03-07T14:40:04.089Z,14.43
2018-03-07T14:42:35.087Z,14.33
2018-03-07T14:45:06.091Z,14.26
2018-03-07T14:47:37.053Z,14.23
2018-03-07T14:50:08.033Z,14.21
2018-03-07T14:52:39.020Z,14.01
2018-03-07T14:55:10.009Z,13.92
2018-03-07T14:57:41.025Z,13.88
2018-03-07T15:00:12.030Z,14.02
2018-03-07T15:02:43.001Z,14.19
2018-03-07T15:05:13.996Z,14.32
2018-03-07T15:07:44.990Z,14.37
2018-03-07T15:10:15.998Z,14.27
2018-03-07T15:12:46.985Z,14.30
2018-03-07T15:15:17.988Z,14.38
2018-03-07T15:17:48.998Z,14.42
2018-03-07T15:20:19.979Z,14.51
2018-03-07T15:22:51.011Z,14.51
2018-03-07T15:25:22.039Z,14.35
2018-03-07T15:27:53.058Z,14.09
2018-03-07T15:30:24.026Z,13.76
2018-03-07T15:32:55.014Z,13.55
2018-03-07T15:35:25.996Z,13.42
2018-03-07T15:37:56.994Z,13.35
2018-03-07T15:40:28.008Z,13.27
2018-03-07T15:42:58.948Z,13.11
2018-03-07T15:45:29.936Z,12.95
2018-03-07T15:48:00.910Z,12.80
2018-03-07T15:50:31.934Z,12.64
2018-03-07T15:53:02.917Z,12.52
2018-03-07T15:55:33.970Z,12.30
2018-03-07T15:58:05.008Z,12.30
2018-03-07T16:00:35.979Z,12.31
2018-03-07T16:03:06.983Z,12.42
2018-03-07T16:05:37.927Z,12.48
2018-03-07T16:08:08.902Z,12.53
2018-03-07T16:10:39.867Z,12.55
2018-03-07T16:13:10.853Z,12.49
2018-03-07T16:15:41.850Z,12.54
2018-03-07T16:18:12.795Z,12.43
2018-03-07T16:20:43.803Z,12.30
2018-03-07T16:23:14.777Z,12.13
2018-03-07T16:25:45.844Z,12.08
2018-03-07T16:28:16.812Z,12.00
2018-03-07T16:30:47.825Z,11.96
2018-03-07T16:33:18.803Z,11.83
2018-03-07T16:35:49.785Z,11.76
2018-03-07T16:38:20.766Z,11.65
2018-03-07T16:40:51.754Z,11.60
2018-03-07T16:43:22.724Z,11.52
2018-03-07T16:45:53.732Z,11.47
2018-03-07T16:48:24.712Z,11.36
2018-03-07T16:50:55.714Z,11.25
2018-03-07T16:53:26.717Z,11.12
2018-03-07T16:55:57.718Z,11.04
2018-03-07T16:58:28.679Z,10.96
2018-03-07T17:00:59.693Z,10.88
2018-03-07T17:03:30.718Z,10.80
2018-03-07T17:06:01.772Z,10.70
2018-03-07T17:08:32.752Z,10.64
2018-03-07T17:11:03.782Z,10.52
2018-03-07T17:13:34.740Z,10.42
2018-03-07T17:16:05.755Z,10.32
2018-03-07T17:18:36.759Z,10.19
2018-03-07T17:21:07.778Z,10.10
2018-03-07T17:26:40.854Z,9.86
2018-03-07T17:29:11.869Z,9.82
2018-03-07T17:31:42.885Z,9.83
2018-03-07T17:34:13.918Z,9.83
2018-03-07T17:36:44.896Z,9.82
2018-03-07T17:39:15.887Z,9.81
2018-03-07T17:41:46.835Z,9.82
2018-03-07T17:44:17.821Z,9.81
2018-03-07T17:46:48.854Z,9.84
2018-03-07T17:49:19.861Z,9.84
2018-03-07T17:51:50.931Z,9.79
2018-03-07T17:54:21.917Z,9.77
2018-03-07T17:56:52.957Z,9.76
2018-03-07T17:59:24.038Z,9.74
2018-03-07T18:01:55.077Z,9.75
2018-03-07T18:04:26.087Z,9.71
2018-03-07T18:06:57.159Z,9.67
2018-03-07T18:09:28.140Z,9.67
2018-03-07T18:11:59.180Z,9.64
2018-03-07T18:14:30.183Z,9.64
2018-03-07T18:17:01.254Z,9.56
2018-03-07T18:19:32.340Z,9.53
2018-03-07T18:22:03.372Z,9.52
2018-03-07T18:24:34.369Z,9.48
2018-03-07T18:27:05.358Z,9.44
2018-03-07T18:29:36.366Z,9.39
2018-03-07T18:32:07.397Z,9.40
2018-03-07T18:34:38.408Z,9.39
2018-03-07T18:37:09.437Z,9.40
2018-03-07T18:39:40.416Z,9.40
2018-03-07T18:42:11.384Z,9.36
2018-03-07T18:44:42.372Z,9.33
2018-03-07T18:47:13.374Z,9.26
2018-03-07T18:49:44.384Z,9.20
2018-03-07T18:52:15.367Z,9.17
2018-03-07T18:54:46.384Z,9.16
2018-03-07T18:57:17.377Z,9.12
2018-03-07T18:59:48.362Z,9.11
2018-03-07T19:02:19.408Z,9.07
2018-03-07T19:04:51.382Z,9.04
2018-03-07T19:07:22.433Z,8.99
2018-03-07T19:09:53.416Z,8.96
2018-03-07T19:12:24.402Z,8.92
2018-03-07T19:14:55.427Z,8.89
2018-03-07T19:17:26.423Z,8.85
2018-03-07T19:19:57.451Z,8.82
2018-03-07T19:22:28.475Z,8.77
2018-03-07T19:24:59.505Z,8.69
2018-03-07T19:27:30.486Z,8.66
2018-03-07T19:30:01.569Z,8.63
2018-03-07T19:32:32.597Z,8.63
2018-03-07T19:35:03.591Z,8.57
2018-03-07T19:37:34.628Z,8.59
2018-03-07T19:40:05.605Z,8.58
2018-03-07T19:42:36.618Z,8.57
2018-03-07T19:45:07.618Z,8.50
2018-03-07T19:47:38.630Z,8.49
2018-03-07T19:50:09.651Z,8.47
2018-03-07T19:52:40.632Z,8.45
2018-03-07T19:55:11.641Z,8.47
2018-03-07T19:57:42.697Z,8.44
2018-03-07T20:00:13.722Z,8.46
2018-03-07T20:02:44.708Z,8.54
2018-03-07T20:05:15.711Z,8.66
2018-03-07T20:07:46.727Z,8.70
2018-03-07T20:10:17.698Z,8.68
2018-03-07T20:12:48.700Z,8.68
2018-03-07T20:15:19.717Z,8.59
2018-03-07T20:17:50.743Z,8.59
2018-03-07T20:20:21.717Z,8.58
2018-03-07T20:22:52.716Z,8.50
2018-03-07T20:25:23.732Z,8.38
2018-03-07T20:27:54.755Z,8.28
2018-03-07T20:30:25.759Z,8.20
2018-03-07T20:32:56.754Z,8.09
2018-03-07T20:35:27.786Z,8.06
2018-03-07T20:37:58.745Z,8.00
2018-03-07T20:40:29.754Z,8.01
2018-03-07T20:43:00.739Z,8.00
2018-03-07T20:45:31.763Z,7.95
2018-03-07T20:48:02.790Z,7.90
2018-03-07T20:50:33.750Z,7.86
2018-03-07T20:53:04.755Z,7.79
2018-03-07T20:55:35.784Z,7.79
2018-03-07T20:58:06.795Z,7.78
2018-03-07T21:00:37.836Z,7.73
2018-03-07T21:03:08.897Z,7.67
2018-03-07T21:05:39.916Z,7.61
2018-03-07T21:08:10.934Z,7.53
2018-03-07T21:10:41.963Z,7.43
2018-03-07T21:13:12.927Z,7.33
2018-03-07T21:15:43.907Z,7.28
2018-03-07T21:18:14.907Z,7.25
2018-03-07T21:20:45.960Z,7.18
2018-03-07T21:23:16.939Z,7.14
2018-03-07T21:25:47.948Z,7.10
2018-03-07T21:28:18.999Z,7.07
2018-03-07T21:30:50.030Z,7.09
2018-03-07T21:33:21.227Z,7.12
2018-03-07T21:35:52.091Z,7.26
2018-03-07T21:38:23.138Z,7.51
2018-03-07T21:40:54.134Z,7.70
2018-03-07T21:43:25.153Z,7.76
2018-03-07T21:45:56.141Z,7.80
2018-03-07T21:48:27.213Z,7.80
2018-03-07T21:50:58.204Z,7.76
2018-03-07T21:53:29.249Z,7.59
2018-03-07T21:56:00.267Z,7.35
2018-03-07T21:58:31.261Z,7.23
2018-03-07T22:01:02.334Z,7.18
2018-03-07T22:03:33.333Z,7.12
2018-03-07T22:06:04.312Z,7.07
2018-03-07T22:08:35.339Z,6.95
2018-03-07T22:11:06.305Z,6.89
2018-03-07T22:13:37.289Z,6.85
2018-03-07T22:16:08.308Z,6.80
2018-03-07T22:18:39.277Z,6.76
2018-03-07T22:21:10.305Z,6.69
2018-03-07T22:23:41.317Z,6.61
2018-03-07T22:26:12.324Z,6.53
2018-03-07T22:28:43.323Z,6.53
2018-03-07T22:31:14.335Z,6.50
2018-03-07T22:33:45.312Z,6.48
2018-03-07T22:36:16.365Z,6.44
2018-03-07T22:38:47.351Z,6.41
2018-03-07T22:41:18.398Z,6.36
2018-03-07T22:43:49.427Z,6.35
2018-03-07T22:46:20.442Z,6.33
2018-03-07T22:48:51.450Z,6.30
2018-03-07T22:51:22.421Z,6.25
2018-03-07T22:53:53.467Z,6.19
2018-03-07T22:56:24.470Z,6.15
2018-03-07T22:58:55.475Z,6.10
2018-03-07T23:01:26.445Z,6.04
2018-03-07T23:03:57.466Z,5.98
2018-03-07T23:06:28.450Z,5.95
2018-03-07T23:08:59.485Z,5.92
2018-03-07T23:11:30.490Z,5.86
2018-03-07T23:14:01.514Z,5.85
2018-03-07T23:16:32.497Z,5.79
2018-03-07T23:19:03.571Z,5.78
2018-03-07T23:21:34.589Z,5.76
2018-03-07T23:24:05.561Z,5.71
2018-03-07T23:26:36.559Z,5.74
2018-03-07T23:29:07.544Z,5.72
2018-03-07T23:31:38.510Z,5.69
2018-03-07T23:34:09.534Z,5.70
2018-03-07T23:36:40.546Z,5.73
2018-03-07T23:39:11.540Z,5.72
2018-03-07T23:41:42.527Z,5.69
2018-03-07T23:44:13.498Z,5.79
2018-03-07T23:46:44.451Z,5.92
2018-03-07T23:49:15.454Z,6.04
2018-03-07T23:51:46.485Z,6.06
2018-03-07T23:54:17.452Z,5.96
2018-03-07T23:56:48.430Z,5.82
2018-03-07T23:59:19.412Z,5.72
